Time;durP1;ratioP1;P1;durP2;ratioP2;P2;SDS_P1;SDS_P2;PMS_P1;PMS_P2;Temp;Humidity;BMP_temperature;BMP_pressure;BME280_temperature;BME280_humidity;BME280_pressure;Samples;Min_cycle;Max_cycle;Signal;HPM_P1;HPM_P2
2023/08/21 00:00:44;;;;;;;10.82;6.78;;;20.00;99.90;;;;;;5024703;28;20033;-64
2023/08/21 00:03:09;;;;;;;9.48;7.20;;;20.00;99.90;;;;;;5024059;28;20049;-66
2023/08/21 00:05:35;;;;;;;12.48;6.88;;;20.00;99.90;;;;;;5021549;28;20395;-66
2023/08/21 00:08:01;;;;;;;13.30;6.85;;;20.00;99.90;;;;;;5015824;28;20500;-65
2023/08/21 00:10:26;;;;;;;18.10;7.43;;;19.90;99.90;;;;;;5024834;28;20040;-64
2023/08/21 00:12:52;;;;;;;13.90;7.50;;;19.80;99.90;;;;;;5027928;28;20414;-65
2023/08/21 00:15:17;;;;;;;11.73;7.78;;;19.80;99.90;;;;;;5025569;28;20068;-66
2023/08/21 00:17:43;;;;;;;11.05;7.82;;;19.70;99.90;;;;;;5027940;28;20407;-65
2023/08/21 00:20:09;;;;;;;7.97;6.95;;;19.60;99.90;;;;;;5025884;28;20064;-64
2023/08/21 00:22:36;;;;;;;13.02;7.95;;;19.60;99.90;;;;;;5026006;28;20033;-65
2023/08/21 00:25:02;;;;;;;12.77;7.57;;;19.60;99.90;;;;;;5026795;28;20037;-65
2023/08/21 00:27:28;;;;;;;12.45;7.13;;;19.50;99.90;;;;;;5028060;28;20068;-67
2023/08/21 00:29:54;;;;;;;14.13;7.30;;;19.40;99.90;;;;;;5024406;28;20723;-64
2023/08/21 00:32:19;;;;;;;10.00;7.55;;;19.40;99.90;;;;;;5026265;28;20033;-66
2023/08/21 00:34:45;;;;;;;12.50;7.88;;;19.30;99.90;;;;;;5011149;28;20045;-64
2023/08/21 00:37:11;;;;;;;12.38;7.25;;;19.30;99.90;;;;;;5022164;28;20064;-64
2023/08/21 00:39:36;;;;;;;11.82;8.43;;;19.30;99.90;;;;;;5025627;28;20738;-64
2023/08/21 00:42:02;;;;;;;11.50;7.68;;;19.20;99.90;;;;;;5023103;28;20029;-65
2023/08/21 00:44:28;;;;;;;10.98;7.63;;;19.20;99.90;;;;;;5023120;28;20033;-65
2023/08/21 00:46:53;;;;;;;14.23;8.15;;;19.10;99.90;;;;;;5000339;28;20080;-65
2023/08/21 00:49:20;;;;;;;11.40;7.75;;;19.10;99.90;;;;;;5025898;28;20033;-65
2023/08/21 00:51:46;;;;;;;11.93;7.57;;;19.10;99.90;;;;;;5024058;28;20079;-65
2023/08/21 00:54:12;;;;;;;12.25;7.45;;;19.10;99.90;;;;;;5023905;28;20029;-66
2023/08/21 00:56:38;;;;;;;12.10;8.82;;;19.20;99.90;;;;;;5025536;28;20453;-65
2023/08/21 00:59:04;;;;;;;13.32;7.95;;;19.20;99.90;;;;;;5024138;28;20037;-65
2023/08/21 01:01:30;;;;;;;13.55;7.47;;;19.20;99.90;;;;;;5027625;28;20082;-66
2023/08/21 01:03:56;;;;;;;10.80;7.85;;;19.40;99.90;;;;;;5019102;28;20037;-65
2023/08/21 01:06:21;;;;;;;11.65;6.63;;;19.40;99.90;;;;;;5022069;28;20083;-66
2023/08/21 01:08:57;;;;;;;15.38;8.57;;;19.40;99.90;;;;;;5020174;28;20521;-65
2023/08/21 01:11:29;;;;;;;11.68;7.57;;;19.50;99.90;;;;;;5024151;28;20446;-66
2023/08/21 01:14:21;;;;;;;15.65;8.18;;;19.50;99.90;;;;;;5026099;28;20034;-64
2023/08/21 01:16:49;;;;;;;16.20;7.63;;;19.50;99.90;;;;;;5025767;28;20029;-66
2023/08/21 01:19:33;;;;;;;13.00;7.40;;;19.50;99.90;;;;;;5023480;28;20100;-64
2023/08/21 01:22:00;;;;;;;13.43;8.35;;;19.40;99.90;;;;;;5023541;28;20052;-65
2023/08/21 01:24:26;;;;;;;13.35;7.70;;;19.30;99.90;;;;;;5025501;28;20432;-65
2023/08/21 01:26:51;;;;;;;14.65;8.52;;;19.20;99.90;;;;;;5025970;28;20113;-63
2023/08/21 01:29:17;;;;;;;13.27;8.70;;;19.10;99.90;;;;;;5024185;28;20035;-66
2023/08/21 01:31:48;;;;;;;12.27;7.97;;;19.00;99.90;;;;;;5022722;28;20060;-65
2023/08/21 01:34:15;;;;;;;9.00;7.88;;;19.00;99.90;;;;;;5021804;28;20025;-65
2023/08/21 01:36:42;;;;;;;10.30;7.38;;;19.00;99.90;;;;;;5023728;28;20490;-66
2023/08/21 01:39:08;;;;;;;16.73;8.45;;;18.90;99.90;;;;;;5023143;28;20029;-65
2023/08/21 01:41:33;;;;;;;13.48;8.20;;;18.90;99.90;;;;;;5023734;28;20413;-65
2023/08/21 01:43:59;;;;;;;11.18;8.23;;;18.90;99.90;;;;;;5021721;28;20556;-64
2023/08/21 01:46:24;;;;;;;13.38;7.65;;;18.90;99.90;;;;;;4996884;28;20045;-65
2023/08/21 01:48:50;;;;;;;9.52;6.85;;;18.80;99.90;;;;;;5021149;28;20412;-64
2023/08/21 01:51:16;;;;;;;17.25;8.70;;;18.80;99.90;;;;;;5028603;28;20040;-65
2023/08/21 01:53:41;;;;;;;15.60;8.98;;;18.80;99.90;;;;;;5023837;28;21768;-66
2023/08/21 01:56:07;;;;;;;11.23;7.85;;;18.70;99.90;;;;;;5019047;28;20033;-65
2023/08/21 01:58:33;;;;;;;11.63;8.52;;;18.70;99.90;;;;;;5023253;28;20033;-65
2023/08/21 02:00:58;;;;;;;15.30;9.77;;;18.70;99.90;;;;;;5023743;28;20071;-66
2023/08/21 02:03:27;;;;;;;12.80;7.93;;;18.60;99.90;;;;;;5023306;28;20231;-65
2023/08/21 02:05:57;;;;;;;11.23;8.48;;;18.60;99.90;;;;;;5024121;28;20390;-66
2023/08/21 02:08:26;;;;;;;15.23;8.50;;;18.60;99.90;;;;;;5024834;28;20063;-65
2023/08/21 02:10:53;;;;;;;13.40;8.98;;;18.60;99.90;;;;;;5020642;28;20562;-62
2023/08/21 02:13:19;;;;;;;16.92;8.55;;;18.60;99.90;;;;;;5023286;28;20120;-66
2023/08/21 02:15:45;;;;;;;14.63;8.45;;;18.60;99.90;;;;;;5024118;28;20028;-65
2023/08/21 02:18:11;;;;;;;13.52;7.88;;;18.60;99.90;;;;;;5022680;28;20029;-66
2023/08/21 02:20:36;;;;;;;14.48;8.05;;;18.50;99.90;;;;;;5022945;28;20111;-65
2023/08/21 02:23:02;;;;;;;11.50;8.15;;;18.50;99.90;;;;;;5020418;28;20033;-64
2023/08/21 02:25:29;;;;;;;13.80;7.53;;;18.50;99.90;;;;;;5023470;28;20506;-65
2023/08/21 02:27:54;;;;;;;14.05;8.32;;;18.60;99.90;;;;;;5025919;28;20569;-66
2023/08/21 02:30:20;;;;;;;19.92;7.22;;;18.60;99.90;;;;;;5021641;28;20021;-64
2023/08/21 02:32:45;;;;;;;11.50;7.93;;;18.60;99.90;;;;;;5021922;28;20139;-67
2023/08/21 02:35:11;;;;;;;13.32;8.15;;;18.70;99.90;;;;;;5018734;28;20037;-65
2023/08/21 02:37:38;;;;;;;16.13;8.52;;;18.70;99.90;;;;;;5021277;28;20740;-65
2023/08/21 02:40:07;;;;;;;18.38;8.52;;;18.70;99.90;;;;;;5022250;28;20108;-68
2023/08/21 02:42:33;;;;;;;15.68;8.82;;;18.70;99.90;;;;;;5014933;28;20021;-65
2023/08/21 02:44:59;;;;;;;15.02;8.30;;;18.70;99.90;;;;;;5020130;28;20033;-65
2023/08/21 02:47:24;;;;;;;12.93;8.35;;;18.70;99.90;;;;;;4996447;28;20123;-65
2023/08/21 02:49:50;;;;;;;11.50;8.43;;;18.70;99.90;;;;;;5016984;28;20506;-70
2023/08/21 02:52:17;;;;;;;16.92;9.25;;;18.70;99.90;;;;;;5023228;28;20033;-65
2023/08/21 02:54:43;;;;;;;13.80;8.20;;;18.60;99.90;;;;;;5025671;28;20033;-66
2023/08/21 02:57:08;;;;;;;12.82;9.52;;;18.60;99.90;;;;;;5021030;28;20044;-65
2023/08/21 02:59:34;;;;;;;13.50;9.00;;;18.50;99.90;;;;;;5021394;28;20068;-67
2023/08/21 03:02:00;;;;;;;14.60;9.07;;;18.40;99.90;;;;;;5027994;28;20876;-64
2023/08/21 03:04:25;;;;;;;11.70;9.02;;;18.40;99.90;;;;;;5028015;28;20130;-66
2023/08/21 03:06:51;;;;;;;17.10;10.02;;;18.40;99.90;;;;;;5027637;28;20036;-64
2023/08/21 03:09:16;;;;;;;13.68;9.43;;;18.40;99.90;;;;;;5027391;28;20052;-65
2023/08/21 03:11:42;;;;;;;14.00;9.63;;;18.30;99.90;;;;;;5026597;28;20164;-65
2023/08/21 03:14:08;;;;;;;17.33;9.30;;;18.30;99.90;;;;;;5023871;28;20022;-66
2023/08/21 03:16:33;;;;;;;12.50;9.35;;;18.30;99.90;;;;;;5027719;28;20140;-66
2023/08/21 03:19:00;;;;;;;14.95;10.95;;;18.30;99.90;;;;;;5026046;28;20668;-65
2023/08/21 03:21:26;;;;;;;17.42;9.88;;;18.30;99.90;;;;;;5028031;28;20033;-67
2023/08/21 03:23:55;;;;;;;16.13;9.73;;;18.20;99.90;;;;;;5028489;28;20191;-66
2023/08/21 03:26:20;;;;;;;18.08;10.40;;;18.30;99.90;;;;;;5024591;28;20033;-65
2023/08/21 03:28:46;;;;;;;13.40;9.27;;;18.20;99.90;;;;;;5025152;28;20403;-67
2023/08/21 03:31:12;;;;;;;15.43;9.73;;;18.20;99.90;;;;;;5025528;28;20664;-65
2023/08/21 03:33:37;;;;;;;18.38;9.70;;;18.20;99.90;;;;;;5027791;28;20018;-65
2023/08/21 03:36:03;;;;;;;11.68;8.95;;;18.20;99.90;;;;;;5026813;28;20048;-65
2023/08/21 03:38:29;;;;;;;16.75;10.13;;;18.10;99.90;;;;;;5025671;28;20026;-66
2023/08/21 03:40:54;;;;;;;11.55;9.27;;;18.20;99.90;;;;;;5024208;28;20033;-64
2023/08/21 03:43:20;;;;;;;13.88;8.85;;;18.20;99.90;;;;;;5022856;28;20457;-66
2023/08/21 03:45:45;;;;;;;13.65;8.80;;;18.10;99.90;;;;;;5028944;28;20052;-66
2023/08/21 03:48:11;;;;;;;16.70;10.15;;;18.10;99.90;;;;;;4999710;28;20042;-67
2023/08/21 03:50:36;;;;;;;14.05;9.85;;;18.10;99.90;;;;;;5026668;28;20041;-66
2023/08/21 03:53:02;;;;;;;15.95;9.85;;;18.10;99.90;;;;;;5027465;28;20376;-65
2023/08/21 03:55:28;;;;;;;17.15;9.68;;;18.10;99.90;;;;;;5025730;28;20038;-66
2023/08/21 03:57:53;;;;;;;16.40;10.35;;;18.10;99.90;;;;;;5023892;28;20040;-66
2023/08/21 04:00:19;;;;;;;9.93;8.52;;;18.20;99.90;;;;;;5025294;28;20043;-67
2023/08/21 04:02:44;;;;;;;13.68;8.75;;;18.20;99.90;;;;;;5028246;28;20712;-66
2023/08/21 04:05:10;;;;;;;14.95;9.73;;;18.10;99.90;;;;;;5025925;28;20068;-67
2023/08/21 04:07:37;;;;;;;18.92;9.45;;;18.10;99.90;;;;;;5026598;28;20494;-68
2023/08/21 04:10:03;;;;;;;12.88;9.80;;;18.00;99.90;;;;;;5025961;28;20041;-65
2023/08/21 04:12:28;;;;;;;12.57;9.88;;;18.10;99.90;;;;;;5025686;28;20037;-67
2023/08/21 04:14:54;;;;;;;11.55;9.55;;;18.00;99.90;;;;;;5026705;28;20047;-65
2023/08/21 04:17:23;;;;;;;13.50;10.23;;;18.00;99.90;;;;;;5027852;28;20049;-66
2023/08/21 04:19:50;;;;;;;15.00;9.57;;;17.90;99.90;;;;;;5027604;28;20053;-67
2023/08/21 04:22:15;;;;;;;14.00;9.80;;;17.90;99.90;;;;;;5025763;28;20091;-66
2023/08/21 04:24:41;;;;;;;13.30;9.45;;;17.90;99.90;;;;;;5027533;28;20025;-66
2023/08/21 04:27:08;;;;;;;14.15;9.48;;;17.90;99.90;;;;;;5023822;28;20036;-65
2023/08/21 04:29:35;;;;;;;15.95;9.77;;;17.90;99.90;;;;;;5022549;28;20017;-66
2023/08/21 04:32:00;;;;;;;11.77;8.48;;;18.00;99.90;;;;;;5024171;28;20700;-65
2023/08/21 04:34:26;;;;;;;12.20;9.48;;;18.00;99.90;;;;;;5025349;28;20038;-66
2023/08/21 04:36:52;;;;;;;13.45;9.18;;;18.00;99.90;;;;;;5024303;28;20395;-66
2023/08/21 04:39:18;;;;;;;24.83;10.52;;;18.00;99.90;;;;;;5025127;28;20052;-66
2023/08/21 04:41:43;;;;;;;15.50;9.68;;;18.00;99.90;;;;;;5025064;28;20368;-65
2023/08/21 04:44:09;;;;;;;19.48;9.50;;;18.10;99.90;;;;;;5024954;28;20031;-66
2023/08/21 04:46:34;;;;;;;22.33;9.18;;;18.10;99.90;;;;;;4995421;28;20037;-66
2023/08/21 04:49:00;;;;;;;22.80;10.32;;;18.10;99.90;;;;;;5023957;28;20045;-67
2023/08/21 04:51:25;;;;;;;17.52;9.18;;;18.00;99.90;;;;;;5025344;28;20034;-65
2023/08/21 04:53:51;;;;;;;13.50;9.15;;;18.10;99.90;;;;;;5024690;28;20025;-66
2023/08/21 04:56:16;;;;;;;16.55;10.77;;;18.00;99.90;;;;;;5025948;28;20534;-65
2023/08/21 04:58:42;;;;;;;18.40;10.82;;;18.00;99.90;;;;;;5025367;28;20380;-67
2023/08/21 05:01:08;;;;;;;11.48;8.70;;;18.10;99.90;;;;;;5022454;28;20080;-66
2023/08/21 05:03:34;;;;;;;14.27;8.88;;;18.10;99.90;;;;;;5041137;28;20037;-66
2023/08/21 05:05:59;;;;;;;14.25;8.98;;;18.10;99.90;;;;;;5024627;28;20055;-66
2023/08/21 05:08:26;;;;;;;13.70;8.70;;;18.10;99.90;;;;;;5023334;28;20048;-66
2023/08/21 05:10:59;;;;;;;11.30;8.25;;;18.20;99.90;;;;;;5023414;28;20025;-66
2023/08/21 05:13:25;;;;;;;20.67;9.50;;;18.30;99.90;;;;;;5025475;28;20116;-66
2023/08/21 05:15:55;;;;;;;13.07;8.02;;;18.40;99.90;;;;;;5019889;28;20613;-65
2023/08/21 05:18:22;;;;;;;13.75;7.70;;;18.50;99.90;;;;;;5025395;28;20544;-66
2023/08/21 05:20:48;;;;;;;12.65;8.57;;;18.60;99.90;;;;;;5023052;28;20099;-65
2023/08/21 05:23:14;;;;;;;13.82;7.60;;;18.70;99.90;;;;;;5024144;28;20033;-65
2023/08/21 05:25:40;;;;;;;14.70;7.80;;;18.70;99.90;;;;;;5022548;28;20044;-66
2023/08/21 05:28:06;;;;;;;19.92;9.30;;;18.80;99.90;;;;;;5023897;28;20037;-67
2023/08/21 05:30:32;;;;;;;10.70;8.23;;;18.80;99.90;;;;;;5021939;28;20025;-66
2023/08/21 05:32:58;;;;;;;11.93;7.95;;;19.00;99.90;;;;;;5021132;28;20042;-65
2023/08/21 05:35:23;;;;;;;10.55;7.75;;;19.30;99.90;;;;;;5020383;28;20059;-66
2023/08/21 05:37:49;;;;;;;9.52;6.78;;;19.70;99.90;;;;;;5021215;28;20634;-65
2023/08/21 05:40:15;;;;;;;11.52;5.70;;;20.10;99.90;;;;;;5021445;28;20061;-61
2023/08/21 05:42:40;;;;;;;8.00;5.55;;;20.40;99.90;;;;;;5022388;28;20045;-66
2023/08/21 05:45:06;;;;;;;10.52;5.95;;;20.90;99.90;;;;;;5019712;28;20037;-64
2023/08/21 05:47:32;;;;;;;12.00;5.80;;;21.30;99.90;;;;;;4994440;28;20072;-65
2023/08/21 05:49:57;;;;;;;8.00;4.88;;;21.80;99.90;;;;;;5015002;28;20053;-65
2023/08/21 05:52:23;;;;;;;15.90;6.15;;;22.10;99.90;;;;;;5021839;28;20025;-64
2023/08/21 05:54:49;;;;;;;9.02;5.60;;;22.10;99.90;;;;;;5025008;28;20411;-66
2023/08/21 05:57:15;;;;;;;8.10;5.05;;;22.20;99.90;;;;;;5024012;28;20401;-65
2023/08/21 05:59:45;;;;;;;9.15;4.78;;;22.20;99.90;;;;;;5018611;28;20458;-67
2023/08/21 06:02:11;;;;;;;9.05;4.72;;;22.30;99.90;;;;;;5013340;28;20975;-65
2023/08/21 06:04:41;;;;;;;6.22;4.75;;;22.40;99.90;;;;;;5014792;28;20175;-66
2023/08/21 06:07:07;;;;;;;7.43;4.15;;;22.80;99.90;;;;;;5022962;28;20442;-64
2023/08/21 06:09:33;;;;;;;11.10;4.55;;;23.90;99.90;;;;;;5022689;28;20029;-64
2023/08/21 06:12:01;;;;;;;6.53;3.40;;;24.70;99.90;;;;;;5022701;28;20033;-66
2023/08/21 06:14:30;;;;;;;10.63;3.22;;;25.70;99.90;;;;;;5015292;28;20033;-65
2023/08/21 06:17:01;;;;;;;5.88;3.03;;;26.40;99.90;;;;;;5015929;28;20026;-65
2023/08/21 06:19:27;;;;;;;7.63;3.00;;;26.90;99.90;;;;;;5017878;28;20407;-63
2023/08/21 06:21:53;;;;;;;4.30;2.67;;;27.30;99.90;;;;;;5023099;28;20498;-65
2023/08/21 06:24:19;;;;;;;5.45;3.63;;;28.70;99.70;;;;;;5021361;28;20037;-66
2023/08/21 06:26:44;;;;;;;5.05;3.10;;;28.90;97.10;;;;;;5022691;28;20022;-65
2023/08/21 06:29:10;;;;;;;5.93;3.00;;;28.70;97.30;;;;;;5021688;28;20140;-67
2023/08/21 06:31:36;;;;;;;7.03;3.28;;;28.80;97.90;;;;;;5021767;28;20373;-66
2023/08/21 06:34:01;;;;;;;3.15;2.70;;;29.10;97.40;;;;;;5023188;28;20029;-64
2023/08/21 06:36:27;;;;;;;4.63;3.13;;;29.70;96.00;;;;;;5021633;28;21323;-66
2023/08/21 06:38:52;;;;;;;8.98;3.10;;;29.90;95.40;;;;;;5023711;28;20033;-67
2023/08/21 06:41:18;;;;;;;4.07;3.20;;;29.80;94.90;;;;;;5021587;28;20037;-64
2023/08/21 06:43:45;;;;;;;5.63;3.05;;;29.00;96.50;;;;;;5017795;28;20055;-65
2023/08/21 06:46:11;;;;;;;5.53;3.78;;;29.30;96.30;;;;;;4992686;28;20076;-67
2023/08/21 06:48:38;;;;;;;5.28;3.60;;;29.40;95.70;;;;;;5023646;28;20057;-66
2023/08/21 06:51:04;;;;;;;6.00;3.70;;;29.40;96.10;;;;;;5021513;28;20025;-66
2023/08/21 06:53:30;;;;;;;12.05;4.32;;;29.80;95.30;;;;;;5022233;28;20030;-66
2023/08/21 06:55:55;;;;;;;8.13;4.13;;;30.00;95.40;;;;;;5022867;28;20104;-65
2023/08/21 06:58:21;;;;;;;8.13;4.15;;;30.60;94.50;;;;;;5034521;28;20582;-65
2023/08/21 07:00:47;;;;;;;7.60;2.90;;;31.20;93.40;;;;;;5022781;28;20372;-65
2023/08/21 07:03:12;;;;;;;7.57;3.83;;;32.30;92.90;;;;;;5023928;28;20112;-65
2023/08/21 07:05:38;;;;;;;5.40;4.07;;;32.10;90.80;;;;;;5020411;28;20034;-67
2023/08/21 07:08:05;;;;;;;5.20;4.28;;;31.60;91.10;;;;;;5021701;28;20593;-65
2023/08/21 07:10:36;;;;;;;6.47;4.55;;;33.00;90.20;;;;;;5024247;28;20029;-66
2023/08/21 07:13:02;;;;;;;6.38;4.55;;;32.40;87.00;;;;;;5020384;28;20060;-66
2023/08/21 07:15:29;;;;;;;5.80;4.07;;;31.80;89.90;;;;;;5020264;28;20052;-66
2023/08/21 07:17:55;;;;;;;9.77;4.65;;;32.10;90.00;;;;;;5018778;28;20044;-64
2023/08/21 07:20:21;;;;;;;5.60;4.38;;;33.20;88.50;;;;;;5019933;28;20446;-65
2023/08/21 07:22:47;;;;;;;10.32;4.40;;;33.80;85.80;;;;;;5023938;28;20626;-66
2023/08/21 07:25:13;;;;;;;6.45;4.40;;;33.60;86.10;;;;;;5024020;28;20065;-67
2023/08/21 07:27:39;;;;;;;4.47;3.80;;;32.70;86.60;;;;;;5022377;28;20021;-65
2023/08/21 07:30:06;;;;;;;7.97;4.45;;;33.00;89.40;;;;;;5022673;28;20486;-63
2023/08/21 07:32:31;;;;;;;4.95;4.45;;;33.30;87.50;;;;;;5023535;28;20029;-65
2023/08/21 07:34:57;;;;;;;5.60;4.65;;;33.10;85.90;;;;;;5020736;28;20025;-65
2023/08/21 07:37:22;;;;;;;7.72;4.70;;;33.60;85.20;;;;;;5017122;28;20108;-66
2023/08/21 07:39:48;;;;;;;8.35;4.75;;;34.40;83.70;;;;;;5024723;28;20045;-66
2023/08/21 07:42:14;;;;;;;8.38;4.60;;;33.40;83.50;;;;;;5027560;28;20111;-67
2023/08/21 07:44:40;;;;;;;6.65;4.07;;;33.50;84.40;;;;;;5025817;28;20041;-67
2023/08/21 07:47:06;;;;;;;7.07;4.65;;;34.60;83.70;;;;;;4997281;28;20051;-67
2023/08/21 07:49:32;;;;;;;5.07;4.53;;;34.70;80.70;;;;;;5013632;28;20144;-67
2023/08/21 07:51:58;;;;;;;6.70;4.97;;;35.20;81.00;;;;;;5026639;28;20035;-67
2023/08/21 07:54:24;;;;;;;9.25;4.80;;;34.70;81.20;;;;;;5026008;28;20017;-67
2023/08/21 07:56:50;;;;;;;6.82;5.10;;;34.00;82.70;;;;;;5026606;28;20483;-65
2023/08/21 07:59:16;;;;;;;9.68;5.63;;;35.10;79.80;;;;;;5023404;28;20475;-66
2023/08/21 08:01:41;;;;;;;12.13;5.50;;;34.20;80.00;;;;;;5025906;28;20091;-66
2023/08/21 08:04:08;;;;;;;6.20;4.93;;;33.70;82.10;;;;;;5022154;28;20041;-65
2023/08/21 08:06:33;;;;;;;7.35;4.60;;;33.60;82.70;;;;;;5027188;28;20048;-66
2023/08/21 08:08:59;;;;;;;7.63;4.50;;;33.80;83.60;;;;;;5026837;28;20029;-65
2023/08/21 08:11:25;;;;;;;5.65;4.85;;;34.10;83.30;;;;;;5027577;28;20116;-66
2023/08/21 08:13:50;;;;;;;5.90;4.50;;;34.90;80.70;;;;;;5023474;28;20080;-66
2023/08/21 08:16:16;;;;;;;8.57;4.03;;;34.80;80.60;;;;;;5025070;28;20398;-66
2023/08/21 08:18:42;;;;;;;6.10;4.93;;;34.60;80.70;;;;;;5021568;28;20034;-66
2023/08/21 08:21:08;;;;;;;6.32;4.53;;;34.50;79.90;;;;;;5021863;28;20922;-67
2023/08/21 08:23:34;;;;;;;9.45;5.35;;;34.50;81.10;;;;;;5023366;28;20573;-65
2023/08/21 08:26:00;;;;;;;6.93;4.55;;;34.90;80.60;;;;;;5022256;28;20033;-65
2023/08/21 08:28:25;;;;;;;10.43;5.07;;;35.50;79.90;;;;;;5024909;28;20022;-67
2023/08/21 08:30:51;;;;;;;10.00;5.68;;;36.30;78.10;;;;;;5027066;28;20455;-66
2023/08/21 08:33:17;;;;;;;7.85;5.50;;;34.90;78.50;;;;;;5024690;28;20148;-67
2023/08/21 08:35:43;;;;;;;7.47;5.40;;;34.40;80.80;;;;;;5024534;28;20033;-66
2023/08/21 08:38:09;;;;;;;9.25;5.63;;;34.40;82.60;;;;;;5024922;28;20049;-67
2023/08/21 08:40:42;;;;;;;8.20;5.10;;;34.40;82.00;;;;;;5025223;28;20038;-66
2023/08/21 08:43:08;;;;;;;8.82;6.28;;;34.50;82.50;;;;;;5025950;28;20022;-66
2023/08/21 08:45:36;;;;;;;9.25;7.03;;;34.40;81.70;;;;;;5024307;28;20399;-65
2023/08/21 08:48:02;;;;;;;6.97;5.45;;;33.80;82.30;;;;;;4999665;28;20050;-66
2023/08/21 08:50:29;;;;;;;7.25;5.30;;;33.40;83.90;;;;;;5025472;28;21344;-65
2023/08/21 08:52:56;;;;;;;8.68;6.35;;;33.90;85.90;;;;;;5024056;28;20038;-66
2023/08/21 08:55:22;;;;;;;8.85;5.78;;;34.00;82.00;;;;;;5022343;28;20021;-66
2023/08/21 08:57:48;;;;;;;9.40;6.32;;;34.00;81.80;;;;;;5025132;28;20057;-66
2023/08/21 09:00:14;;;;;;;6.72;5.53;;;33.70;82.50;;;;;;5020530;28;20026;-66
2023/08/21 09:02:39;;;;;;;7.25;6.10;;;34.20;82.00;;;;;;5024357;28;20565;-66
2023/08/21 09:05:06;;;;;;;10.32;5.70;;;34.30;82.00;;;;;;5023762;28;20044;-67
2023/08/21 09:07:32;;;;;;;7.35;6.05;;;34.30;81.90;;;;;;5026171;28;20036;-65
2023/08/21 09:09:58;;;;;;;9.45;6.60;;;33.70;82.00;;;;;;5022971;28;20029;-65
2023/08/21 09:12:23;;;;;;;10.02;6.05;;;33.80;82.20;;;;;;5021645;28;20029;-65
2023/08/21 09:14:49;;;;;;;6.53;5.82;;;33.40;83.20;;;;;;5019135;28;20029;-66
2023/08/21 09:17:15;;;;;;;10.38;5.43;;;33.80;84.50;;;;;;5024891;28;20033;-66
2023/08/21 09:19:42;;;;;;;6.82;5.85;;;33.90;83.60;;;;;;5021930;28;20029;-67
2023/08/21 09:22:14;;;;;;;10.38;6.40;;;34.00;82.10;;;;;;5023594;28;20108;-66
2023/08/21 09:24:41;;;;;;;8.48;6.10;;;33.90;83.20;;;;;;5025790;28;20026;-66
2023/08/21 09:27:15;;;;;;;7.60;5.75;;;34.20;81.80;;;;;;5023111;28;20402;-66
2023/08/21 09:29:41;;;;;;;11.52;6.80;;;34.40;80.90;;;;;;5022786;28;20033;-66
2023/08/21 09:32:07;;;;;;;8.38;6.85;;;34.00;82.00;;;;;;5023036;28;20068;-65
2023/08/21 09:34:36;;;;;;;10.10;6.47;;;33.40;82.00;;;;;;5025220;28;20110;-67
2023/08/21 09:37:06;;;;;;;9.18;7.32;;;33.50;82.40;;;;;;5022900;28;20061;-66
2023/08/21 09:39:36;;;;;;;9.13;5.10;;;33.60;80.40;;;;;;5019485;28;20507;-66
2023/08/21 09:42:06;;;;;;;7.70;5.53;;;33.80;83.40;;;;;;5024140;28;20482;-66
2023/08/21 09:44:37;;;;;;;9.32;5.38;;;34.10;81.70;;;;;;5023065;28;20026;-65
2023/08/21 09:47:03;;;;;;;10.50;6.65;;;34.00;82.30;;;;;;4998901;28;20030;-67
2023/08/21 09:49:29;;;;;;;10.75;5.63;;;33.90;80.90;;;;;;5024322;28;20038;-66
2023/08/21 09:51:55;;;;;;;7.10;5.18;;;33.80;82.40;;;;;;5021723;28;20364;-66
2023/08/21 09:54:21;;;;;;;10.75;5.57;;;33.40;83.10;;;;;;5017845;28;20033;-66
2023/08/21 09:56:48;;;;;;;6.80;5.60;;;33.40;83.50;;;;;;5024136;28;20025;-66
2023/08/21 09:59:14;;;;;;;10.45;6.15;;;33.20;83.70;;;;;;5021186;28;20104;-66
2023/08/21 10:01:41;;;;;;;6.72;5.55;;;33.40;83.70;;;;;;5021541;28;20044;-64
2023/08/21 10:04:09;;;;;;;9.05;5.53;;;33.30;85.50;;;;;;5020317;28;20029;-66
2023/08/21 10:06:36;;;;;;;9.27;6.95;;;32.90;84.60;;;;;;5025978;28;20465;-66
2023/08/21 10:09:02;;;;;;;13.73;5.93;;;33.00;85.70;;;;;;5021403;28;20044;-64
2023/08/21 10:11:28;;;;;;;8.82;5.97;;;32.60;86.30;;;;;;5020016;28;21260;-64
2023/08/21 10:13:55;;;;;;;10.75;5.60;;;32.20;87.70;;;;;;5019703;28;20033;-64
2023/08/21 10:16:21;;;;;;;12.20;6.28;;;32.20;87.40;;;;;;5021812;28;20026;-66
2023/08/21 10:18:47;;;;;;;11.60;6.32;;;32.00;89.40;;;;;;5022526;28;20190;-65
2023/08/21 10:21:14;;;;;;;9.23;6.20;;;32.10;88.50;;;;;;5020005;28;20037;-68
2023/08/21 10:23:40;;;;;;;9.73;6.43;;;32.00;88.10;;;;;;5018517;28;20026;-63
2023/08/21 10:26:08;;;;;;;9.23;6.95;;;31.80;90.00;;;;;;5023175;28;20021;-66
2023/08/21 10:28:52;;;;;;;9.05;6.15;;;31.00;89.70;;;;;;5018343;28;20033;-65
2023/08/21 10:31:32;;;;;;;10.98;6.07;;;30.80;91.30;;;;;;5022987;28;20032;-65
2023/08/21 10:33:59;;;;;;;12.32;6.55;;;30.80;91.80;;;;;;5018711;28;20033;-65
2023/08/21 10:36:40;;;;;;;11.40;6.75;;;30.90;91.20;;;;;;5022933;28;21247;-64
2023/08/21 10:39:25;;;;;;;15.95;6.95;;;31.00;90.80;;;;;;5023644;28;20065;-66
2023/08/21 10:42:04;;;;;;;12.98;7.03;;;31.60;90.00;;;;;;5023437;28;20044;-64
2023/08/21 10:44:36;;;;;;;12.98;6.82;;;31.50;89.50;;;;;;5022893;28;20029;-64
2023/08/21 10:47:26;;;;;;;13.80;7.05;;;31.20;90.40;;;;;;4997128;28;20103;-67
2023/08/21 10:50:00;;;;;;;13.07;6.53;;;30.90;91.10;;;;;;5019883;28;20083;-64
2023/08/21 10:52:30;;;;;;;16.23;6.90;;;30.90;92.10;;;;;;5024722;28;20025;-65
2023/08/21 10:55:00;;;;;;;20.17;7.97;;;30.90;92.50;;;;;;5020833;28;20041;-66
2023/08/21 10:57:27;;;;;;;10.30;6.90;;;30.80;90.90;;;;;;5023795;28;20526;-65
2023/08/21 10:59:57;;;;;;;10.63;6.15;;;31.00;90.00;;;;;;5018941;28;20156;-64
2023/08/21 11:02:24;;;;;;;8.70;6.40;;;31.30;90.10;;;;;;5020481;28;20549;-64
2023/08/21 11:04:51;;;;;;;11.40;6.93;;;31.00;90.40;;;;;;5017919;28;20166;-65
2023/08/21 11:07:16;;;;;;;10.30;6.32;;;30.80;90.90;;;;;;5019916;28;20033;-65
2023/08/21 11:09:42;;;;;;;8.38;5.53;;;30.70;91.80;;;;;;5020321;28;20025;-65
2023/08/21 11:12:13;;;;;;;16.15;6.60;;;30.80;92.50;;;;;;5023233;28;20045;-65
2023/08/21 11:14:39;;;;;;;12.60;6.82;;;31.00;91.40;;;;;;5020502;28;20486;-65
2023/08/21 11:17:06;;;;;;;10.48;6.03;;;30.80;91.30;;;;;;5025074;28;20025;-65
2023/08/21 11:19:33;;;;;;;10.68;5.68;;;30.50;92.10;;;;;;5022707;28;20037;-64
2023/08/21 11:22:03;;;;;;;7.68;4.93;;;30.70;91.70;;;;;;5024246;28;21195;-64
2023/08/21 11:24:38;;;;;;;8.38;5.47;;;30.90;92.20;;;;;;5022842;28;20108;-66
2023/08/21 11:27:12;;;;;;;9.93;5.50;;;31.00;90.70;;;;;;5015997;28;20422;-65
2023/08/21 11:29:42;;;;;;;11.65;4.63;;;31.20;90.10;;;;;;5011430;28;20034;-64
2023/08/21 11:32:18;;;;;;;8.15;5.28;;;30.90;91.70;;;;;;5024997;28;20029;-65
2023/08/21 11:34:51;;;;;;;8.20;4.57;;;31.00;91.30;;;;;;5026730;28;20017;-65
2023/08/21 11:37:25;;;;;;;8.27;5.10;;;31.50;91.10;;;;;;5026799;28;20101;-65
2023/08/21 11:39:52;;;;;;;8.73;4.97;;;31.60;90.50;;;;;;5020483;28;20494;-65
2023/08/21 11:42:28;;;;;;;10.25;5.68;;;31.60;89.40;;;;;;5017035;28;20494;-66
2023/08/21 11:44:54;;;;;;;11.90;6.22;;;31.30;90.90;;;;;;5037367;28;20379;-64
2023/08/21 11:47:21;;;;;;;9.65;5.60;;;31.00;90.60;;;;;;4994372;28;20045;-64
2023/08/21 11:49:52;;;;;;;10.02;6.40;;;30.70;90.40;;;;;;4986139;28;20488;-64
2023/08/21 11:52:20;;;;;;;13.27;5.80;;;30.70;91.40;;;;;;5011529;28;20609;-64
2023/08/21 11:54:48;;;;;;;9.30;5.43;;;30.70;91.00;;;;;;5008670;28;20041;-65
2023/08/21 11:57:15;;;;;;;12.38;7.50;;;30.80;90.90;;;;;;5018061;28;20403;-65
2023/08/21 11:59:41;;;;;;;9.23;6.25;;;30.70;91.00;;;;;;5010836;28;20033;-64
2023/08/21 12:02:14;;;;;;;9.35;5.65;;;30.40;91.10;;;;;;5003643;28;20112;-64
2023/08/21 12:04:39;;;;;;;;;;;30.20;92.10;;;;;;5013005;28;20061;-65
2023/08/21 12:07:05;;;;;;;10.05;5.00;;;30.40;91.90;;;;;;5014187;28;20403;-65
2023/08/21 12:09:31;;;;;;;8.23;5.72;;;30.40;92.70;;;;;;5012580;28;20061;-64
2023/08/21 12:11:57;;;;;;;10.98;5.90;;;30.80;91.20;;;;;;5012474;28;20071;-66
2023/08/21 12:14:23;;;;;;;8.15;5.60;;;30.60;91.60;;;;;;5011701;28;20052;-65
2023/08/21 12:16:48;;;;;;;9.20;5.03;;;30.80;90.70;;;;;;5011847;28;20028;-65
2023/08/21 12:19:14;;;;;;;13.43;5.75;;;30.70;90.40;;;;;;5005461;28;20890;-64
2023/08/21 12:21:40;;;;;;;7.90;4.60;;;30.80;90.50;;;;;;5005561;28;20528;-64
2023/08/21 12:24:09;;;;;;;6.97;4.70;;;30.80;92.10;;;;;;5017110;28;20034;-65
2023/08/21 12:26:34;;;;;;;7.38;4.30;;;30.90;90.50;;;;;;5015772;28;20025;-66
2023/08/21 12:29:01;;;;;;;6.18;3.80;;;30.80;89.20;;;;;;5010766;28;20546;-63
2023/08/21 12:31:26;;;;;;;11.20;4.22;;;31.00;90.00;;;;;;5012139;28;20488;-66
2023/08/21 12:33:52;;;;;;;8.65;4.68;;;31.10;89.10;;;;;;5008034;28;20034;-64
2023/08/21 12:36:18;;;;;;;7.68;3.88;;;30.90;87.90;;;;;;5001946;28;20068;-65
2023/08/21 12:38:44;;;;;;;8.43;4.88;;;30.60;85.60;;;;;;5005213;28;20030;-64